createdAt,value
2019-03-05T00:00:48.771Z,5.20
2019-03-05T00:03:16.783Z,5.40
2019-03-05T00:05:44.697Z,5.23
2019-03-05T00:08:12.613Z,5.40
2019-03-05T00:10:40.511Z,5.80
2019-03-05T00:13:08.429Z,5.07
2019-03-05T00:15:36.391Z,5.23
2019-03-05T00:18:04.448Z,5.20
2019-03-05T00:20:32.423Z,5.23
2019-03-05T00:23:00.343Z,4.97
2019-03-05T00:25:28.341Z,4.60
2019-03-05T00:28:01.125Z,4.43
2019-03-05T00:30:43.128Z,4.60
2019-03-05T00:33:32.696Z,5.10
2019-03-05T00:36:02.143Z,4.40
2019-03-05T00:38:55.202Z,4.57
2019-03-05T00:41:42.459Z,4.50
2019-03-05T00:44:28.165Z,4.47
2019-03-05T00:47:18.185Z,4.63
2019-03-05T00:50:14.394Z,4.67
2019-03-05T00:53:07.792Z,4.60
2019-03-05T00:55:49.864Z,4.80
2019-03-05T00:58:20.807Z,4.43
2019-03-05T01:01:10.257Z,5.20
2019-03-05T01:03:42.688Z,4.70
2019-03-05T01:06:23.914Z,5.00
2019-03-05T01:08:52.193Z,4.90
2019-03-05T01:11:20.601Z,5.23
2019-03-05T01:13:48.616Z,4.47
2019-03-05T01:16:18.310Z,4.80
2019-03-05T01:18:46.331Z,4.90
2019-03-05T01:21:14.208Z,4.97
2019-03-05T01:23:42.198Z,5.07
2019-03-05T01:26:10.112Z,4.50
2019-03-05T01:28:38.004Z,5.37
2019-03-05T01:31:30.505Z,4.70
2019-03-05T01:34:03.908Z,4.97
2019-03-05T01:36:34.193Z,4.43
2019-03-05T01:39:19.737Z,4.07
2019-03-05T01:41:47.715Z,4.40
2019-03-05T01:44:15.717Z,3.60
2019-03-05T01:46:43.684Z,4.07
2019-03-05T01:49:11.595Z,3.40
2019-03-05T01:51:39.580Z,3.77
2019-03-05T01:54:07.524Z,3.90
2019-03-05T01:56:35.437Z,3.60
2019-03-05T01:59:03.362Z,3.10
2019-03-05T02:01:31.247Z,3.47
2019-03-05T02:03:59.168Z,3.20
2019-03-05T02:06:27.067Z,3.30
2019-03-05T02:08:55.158Z,3.30
2019-03-05T02:11:23.152Z,3.83
2019-03-05T02:13:51.089Z,3.87
2019-03-05T02:16:19.107Z,2.73
2019-03-05T02:18:47.008Z,3.37
2019-03-05T02:21:14.989Z,3.80
2019-03-05T02:24:05.101Z,3.47
2019-03-05T02:26:53.283Z,2.83
2019-03-05T02:29:40.291Z,3.13
2019-03-05T02:32:18.097Z,2.73
2019-03-05T02:35:04.098Z,3.40
2019-03-05T02:38:06.488Z,3.57
2019-03-05T02:41:05.719Z,3.20
2019-03-05T02:44:05.052Z,2.70
2019-03-05T02:46:41.911Z,2.50
2019-03-05T02:49:35.023Z,3.03
2019-03-05T02:52:28.053Z,3.07
2019-03-05T02:55:18.144Z,3.13
2019-03-05T02:57:45.235Z,3.00
2019-03-05T03:00:17.436Z,2.90
2019-03-05T03:02:57.847Z,2.73
2019-03-05T03:05:59.766Z,3.50
2019-03-05T03:08:27.715Z,2.70
2019-03-05T03:10:55.619Z,3.00
2019-03-05T03:13:23.523Z,3.00
2019-03-05T03:15:51.510Z,3.00
2019-03-05T03:18:19.460Z,2.23
2019-03-05T03:20:47.431Z,2.57
2019-03-05T03:23:15.411Z,2.30
2019-03-05T03:25:43.402Z,2.67
2019-03-05T03:28:11.385Z,1.97
2019-03-05T03:30:39.394Z,2.50
2019-03-05T03:33:07.370Z,2.40
2019-03-05T03:35:35.307Z,2.87
2019-03-05T03:38:03.344Z,2.30
2019-03-05T03:40:31.300Z,2.33
2019-03-05T03:42:59.242Z,2.63
2019-03-05T03:45:27.418Z,2.30
2019-03-05T03:47:55.413Z,1.90
2019-03-05T03:50:23.497Z,2.20
2019-03-05T03:52:51.545Z,2.30
2019-03-05T03:55:19.504Z,2.33
2019-03-05T03:57:48.660Z,2.57
2019-03-05T04:00:17.960Z,2.13
2019-03-05T04:02:45.892Z,2.30
2019-03-05T04:05:13.882Z,2.50
2019-03-05T04:07:41.809Z,2.37
2019-03-05T04:10:10.034Z,2.40
2019-03-05T04:12:38.006Z,2.50
2019-03-05T04:15:06.465Z,2.23
2019-03-05T04:17:34.469Z,2.30
2019-03-05T04:20:02.571Z,2.00
2019-03-05T04:22:30.550Z,2.37
2019-03-05T04:24:58.487Z,2.43
2019-03-05T04:27:26.393Z,2.43
2019-03-05T04:29:54.429Z,2.10
2019-03-05T04:32:23.785Z,2.00
2019-03-05T04:34:52.023Z,2.20
2019-03-05T04:37:19.946Z,2.30
2019-03-05T04:39:47.928Z,2.23
2019-03-05T04:42:15.823Z,2.20
2019-03-05T04:45:05.601Z,2.07
2019-03-05T04:47:33.492Z,3.10
2019-03-05T04:50:15.117Z,2.30
2019-03-05T04:52:43.089Z,2.20
2019-03-05T04:55:11.008Z,2.03
2019-03-05T04:57:38.977Z,2.27
2019-03-05T05:00:09.247Z,1.93
2019-03-05T05:02:37.269Z,1.87
2019-03-05T05:05:05.228Z,2.00
2019-03-05T05:07:33.249Z,2.10
2019-03-05T05:10:01.162Z,1.90
2019-03-05T05:12:29.055Z,1.80
2019-03-05T05:14:56.967Z,1.80
2019-03-05T05:17:24.899Z,2.10
2019-03-05T05:19:52.889Z,2.10
2019-03-05T05:22:20.812Z,1.80
2019-03-05T05:24:48.711Z,2.00
2019-03-05T05:27:16.636Z,1.60
2019-03-05T05:29:44.712Z,1.83
2019-03-05T05:32:12.762Z,1.60
2019-03-05T05:34:40.828Z,1.60
2019-03-05T05:37:08.785Z,1.40
2019-03-05T05:39:54.823Z,1.50
2019-03-05T05:42:22.880Z,1.67
2019-03-05T05:44:53.541Z,1.60
2019-03-05T05:47:21.441Z,1.40
2019-03-05T05:49:49.320Z,1.30
2019-03-05T05:52:17.333Z,1.40
2019-03-05T05:54:45.343Z,1.47
2019-03-05T05:57:13.304Z,1.30
2019-03-05T05:59:41.307Z,1.50
2019-03-05T06:02:09.424Z,1.60
2019-03-05T06:04:37.400Z,1.33
2019-03-05T06:07:05.420Z,1.70
2019-03-05T06:09:33.321Z,1.30
2019-03-05T06:12:01.320Z,1.83
2019-03-05T06:14:29.275Z,1.60
2019-03-05T06:16:57.161Z,1.53
2019-03-05T06:19:25.092Z,1.47
2019-03-05T06:21:53.082Z,1.60
2019-03-05T06:24:21.036Z,1.70
2019-03-05T06:26:48.940Z,1.53
2019-03-05T06:29:16.862Z,1.53
2019-03-05T06:31:44.828Z,2.10
2019-03-05T06:34:12.789Z,1.60
2019-03-05T06:36:59.815Z,1.70
2019-03-05T06:39:27.789Z,1.60
2019-03-05T06:41:55.775Z,1.47
2019-03-05T06:44:23.737Z,1.40
2019-03-05T06:46:51.768Z,1.20
2019-03-05T06:49:19.776Z,1.50
2019-03-05T06:51:47.760Z,1.50
2019-03-05T06:54:15.705Z,1.40
2019-03-05T06:56:43.677Z,1.20
2019-03-05T06:59:11.592Z,1.30
2019-03-05T07:01:39.519Z,1.27
2019-03-05T07:04:07.419Z,1.60
2019-03-05T07:07:06.739Z,1.50
2019-03-05T07:09:50.650Z,1.57
2019-03-05T07:12:46.918Z,1.50
2019-03-05T07:15:52.427Z,1.60
2019-03-05T07:18:25.703Z,1.60
2019-03-05T07:21:15.524Z,1.50
2019-03-05T07:24:01.414Z,1.30
2019-03-05T07:26:29.404Z,1.50
2019-03-05T07:28:57.303Z,1.40
2019-03-05T07:31:25.215Z,1.40
2019-03-05T07:33:53.121Z,1.20
2019-03-05T07:36:21.107Z,1.40
2019-03-05T07:38:49.078Z,1.40
2019-03-05T07:41:17.044Z,1.47
2019-03-05T07:43:45.004Z,1.20
2019-03-05T07:46:12.995Z,1.40
2019-03-05T07:48:40.915Z,1.30
2019-03-05T07:51:08.837Z,1.50
2019-03-05T07:53:36.743Z,1.20
2019-03-05T07:56:04.652Z,1.37
2019-03-05T07:58:32.587Z,1.50
2019-03-05T08:01:00.491Z,1.30
2019-03-05T08:03:28.520Z,1.17
2019-03-05T08:05:56.407Z,1.03
2019-03-05T08:08:42.231Z,0.93
2019-03-05T08:11:10.242Z,1.10
2019-03-05T08:13:42.671Z,1.10
2019-03-05T08:16:29.635Z,1.20
2019-03-05T08:18:57.623Z,0.73
2019-03-05T08:21:25.515Z,1.17
2019-03-05T08:23:53.420Z,1.10
2019-03-05T08:26:21.343Z,0.90
2019-03-05T08:28:49.401Z,1.00
2019-03-05T08:31:17.324Z,1.10
2019-03-05T08:33:45.275Z,0.90
2019-03-05T08:36:13.329Z,1.20
2019-03-05T08:38:41.259Z,1.13
2019-03-05T08:41:09.179Z,1.00
2019-03-05T08:43:37.159Z,0.70
2019-03-05T08:46:05.290Z,0.90
2019-03-05T08:48:33.271Z,1.00
2019-03-05T08:51:01.174Z,0.90
2019-03-05T08:53:29.089Z,1.20
2019-03-05T08:55:57.015Z,1.00
2019-03-05T08:58:24.969Z,1.20
2019-03-05T09:00:52.870Z,0.87
2019-03-05T09:03:20.879Z,0.90
2019-03-05T09:05:48.795Z,0.80
2019-03-05T09:08:16.780Z,0.90
2019-03-05T09:10:44.655Z,0.93
2019-03-05T09:13:12.609Z,0.90
2019-03-05T09:15:40.568Z,0.93
2019-03-05T09:18:08.475Z,1.20
2019-03-05T09:20:36.360Z,0.80
2019-03-05T09:23:04.377Z,0.87
2019-03-05T09:25:32.316Z,0.80
2019-03-05T09:28:00.232Z,1.00
2019-03-05T09:30:28.171Z,0.80
2019-03-05T09:32:56.075Z,0.60
2019-03-05T09:35:23.968Z,0.93
2019-03-05T09:37:51.883Z,0.77
2019-03-05T09:40:20.395Z,0.90
2019-03-05T09:42:48.359Z,0.77
2019-03-05T09:45:16.926Z,0.63
2019-03-05T09:47:44.882Z,0.70
2019-03-05T09:50:15.237Z,0.90
2019-03-05T09:52:54.461Z,0.80
2019-03-05T09:55:17.227Z,0.70
2019-03-05T09:57:45.518Z,0.80
2019-03-05T10:00:16.391Z,1.00
2019-03-05T10:02:46.113Z,0.70
2019-03-05T10:05:15.762Z,0.90
2019-03-05T10:07:45.637Z,0.90
2019-03-05T10:10:16.413Z,0.73
2019-03-05T10:12:44.744Z,1.00
2019-03-05T10:15:14.310Z,0.87
2019-03-05T10:17:42.728Z,0.90
2019-03-05T10:20:12.300Z,0.60
2019-03-05T10:22:40.810Z,0.80
2019-03-05T10:25:09.627Z,0.73
2019-03-05T10:27:38.020Z,0.60
2019-03-05T10:30:11.226Z,0.80
2019-03-05T10:32:39.720Z,0.70
2019-03-05T10:35:07.665Z,0.90
2019-03-05T10:37:35.713Z,1.00
2019-03-05T10:40:03.727Z,0.77
2019-03-05T10:42:32.131Z,0.80
2019-03-05T10:45:00.067Z,0.67
2019-03-05T10:47:28.040Z,0.90
2019-03-05T10:49:56.050Z,0.70
2019-03-05T10:52:25.660Z,0.90
2019-03-05T10:54:53.563Z,0.90
2019-03-05T10:57:21.469Z,0.90
2019-03-05T10:59:49.444Z,1.20
2019-03-05T11:02:17.697Z,1.00
2019-03-05T11:04:46.132Z,1.00
2019-03-05T11:07:14.255Z,1.03
2019-03-05T11:09:42.183Z,0.90
2019-03-05T11:12:10.107Z,0.80
2019-03-05T11:14:38.039Z,1.00
2019-03-05T11:17:06.076Z,1.00
2019-03-05T11:19:35.713Z,1.10
2019-03-05T11:22:05.343Z,1.03
2019-03-05T11:24:35.046Z,1.10
2019-03-05T11:27:04.754Z,0.97
2019-03-05T11:29:34.100Z,0.93
2019-03-05T11:32:02.139Z,0.90
2019-03-05T11:34:30.049Z,0.90
2019-03-05T11:36:58.176Z,0.90
2019-03-05T11:39:26.704Z,0.80
2019-03-05T11:41:54.906Z,0.70
2019-03-05T11:44:23.017Z,0.67
2019-03-05T11:46:50.947Z,0.60
2019-03-05T11:49:18.964Z,0.80
2019-03-05T11:51:46.929Z,1.00
2019-03-05T11:54:14.868Z,0.80
2019-03-05T11:56:42.764Z,0.90
2019-03-05T11:59:10.745Z,1.10
2019-03-05T12:01:42.039Z,0.90
2019-03-05T12:04:09.975Z,0.90
2019-03-05T12:06:37.948Z,0.90
2019-03-05T12:09:06.814Z,0.90
2019-03-05T12:11:34.836Z,0.83
2019-03-05T12:14:02.721Z,0.77
2019-03-05T12:16:30.951Z,0.90
2019-03-05T12:18:59.335Z,0.90
2019-03-05T12:21:27.322Z,1.00
2019-03-05T12:23:55.297Z,1.00
2019-03-05T12:26:23.196Z,1.00
2019-03-05T12:28:51.117Z,1.00
2019-03-05T12:31:19.136Z,0.80
2019-03-05T12:33:47.310Z,0.87
2019-03-05T12:36:15.359Z,1.00
2019-03-05T12:38:46.061Z,0.93
2019-03-05T12:41:13.043Z,0.80
2019-03-05T12:43:40.941Z,0.90
2019-03-05T12:46:10.921Z,0.97
2019-03-05T12:48:40.638Z,0.90
2019-03-05T12:51:11.084Z,1.00
2019-03-05T12:53:41.080Z,1.00
2019-03-05T12:56:09.988Z,0.73
2019-03-05T12:58:37.963Z,0.80
2019-03-05T13:01:06.779Z,0.80
2019-03-05T13:03:34.670Z,0.90
2019-03-05T13:06:02.713Z,0.73
2019-03-05T13:08:30.700Z,0.90
2019-03-05T13:10:58.646Z,1.00
2019-03-05T13:13:26.593Z,0.80
2019-03-05T13:15:56.485Z,0.93
2019-03-05T13:18:26.856Z,1.47
2019-03-05T13:20:54.033Z,0.90
2019-03-05T13:23:21.954Z,0.90
2019-03-05T13:25:50.283Z,1.03
2019-03-05T13:28:18.245Z,0.87
2019-03-05T13:30:46.168Z,0.97
2019-03-05T13:33:14.207Z,0.77
2019-03-05T13:35:42.154Z,0.87
2019-03-05T13:38:10.781Z,0.80
2019-03-05T13:40:40.709Z,0.60
2019-03-05T13:43:08.559Z,0.73
2019-03-05T13:45:36.574Z,0.90
2019-03-05T13:48:14.881Z,0.90
2019-03-05T13:51:00.164Z,0.60
2019-03-05T13:53:31.847Z,0.87
2019-03-05T13:56:17.932Z,0.80
2019-03-05T13:59:00.819Z,0.77
2019-03-05T14:01:28.815Z,0.90
2019-03-05T14:04:02.950Z,1.00
2019-03-05T14:06:52.528Z,0.90
2019-03-05T14:09:20.393Z,1.50
2019-03-05T14:11:49.394Z,0.87
2019-03-05T14:14:18.691Z,1.23
2019-03-05T14:16:48.042Z,0.90
2019-03-05T14:19:16.075Z,0.67
2019-03-05T14:21:44.047Z,0.70
2019-03-05T14:24:12.037Z,0.90
2019-03-05T14:26:39.992Z,0.90
2019-03-05T14:29:07.985Z,0.80
2019-03-05T14:31:35.989Z,0.90
2019-03-05T14:34:04.064Z,0.87
2019-03-05T14:36:32.023Z,0.70
2019-03-05T14:39:01.386Z,0.60
2019-03-05T14:41:29.404Z,0.70
2019-03-05T14:43:57.627Z,0.90
2019-03-05T14:46:25.611Z,0.83
2019-03-05T14:48:53.604Z,0.80
2019-03-05T14:51:21.585Z,0.97
2019-03-05T14:53:49.572Z,0.90
2019-03-05T14:56:18.663Z,0.60
2019-03-05T14:58:46.874Z,0.83
2019-03-05T15:01:14.873Z,0.80
2019-03-05T15:03:42.894Z,1.00
2019-03-05T15:06:10.912Z,0.77
2019-03-05T15:08:38.858Z,0.83
2019-03-05T15:11:06.966Z,0.90
2019-03-05T15:13:34.908Z,0.87
2019-03-05T15:16:02.955Z,0.90
2019-03-05T15:18:30.884Z,1.03
2019-03-05T15:20:58.943Z,0.73
2019-03-05T15:23:26.811Z,1.03
2019-03-05T15:25:54.755Z,0.80
2019-03-05T15:28:22.741Z,0.77
2019-03-05T15:30:50.691Z,0.80
2019-03-05T15:33:18.673Z,0.90
2019-03-05T15:35:46.647Z,1.20
2019-03-05T15:38:14.674Z,0.83
2019-03-05T15:40:42.740Z,0.70
2019-03-05T15:43:10.730Z,0.73
2019-03-05T15:45:39.727Z,0.90
2019-03-05T15:48:07.778Z,0.97
2019-03-05T15:50:35.740Z,0.70
2019-03-05T15:53:03.966Z,0.80
2019-03-05T15:55:32.109Z,0.80
2019-03-05T15:58:00.040Z,0.70
2019-03-05T16:00:30.033Z,0.83
2019-03-05T16:02:58.070Z,0.60
2019-03-05T16:05:26.536Z,0.87
2019-03-05T16:07:54.551Z,1.30
2019-03-05T16:10:22.541Z,0.90
2019-03-05T16:12:50.677Z,1.10
2019-03-05T16:15:21.521Z,0.60
2019-03-05T16:17:50.303Z,0.80
2019-03-05T16:20:18.408Z,0.90
2019-03-05T16:22:46.386Z,0.70
2019-03-05T16:25:14.952Z,0.90
2019-03-05T16:27:43.066Z,1.00
2019-03-05T16:30:34.422Z,1.20
2019-03-05T16:33:20.154Z,1.20
2019-03-05T16:36:00.903Z,1.30
2019-03-05T16:38:45.292Z,0.90
2019-03-05T16:41:23.352Z,0.80
2019-03-05T16:44:10.791Z,1.10
2019-03-05T16:47:06.610Z,0.90
2019-03-05T16:49:46.408Z,0.87
2019-03-05T16:52:26.407Z,0.80
2019-03-05T16:55:03.593Z,0.80
2019-03-05T16:57:56.408Z,0.90
2019-03-05T17:00:49.001Z,0.60
2019-03-05T17:03:47.828Z,0.80
2019-03-05T17:06:30.381Z,0.80
2019-03-05T17:09:15.992Z,0.90
2019-03-05T17:11:55.056Z,0.73
2019-03-05T17:14:23.203Z,1.33
2019-03-05T17:16:51.280Z,1.40
2019-03-05T17:19:19.299Z,1.00
2019-03-05T17:21:47.428Z,0.60
2019-03-05T17:24:16.191Z,0.80
2019-03-05T17:26:44.165Z,1.10
2019-03-05T17:29:12.151Z,0.80
2019-03-05T17:31:40.203Z,0.87
2019-03-05T17:34:08.393Z,1.87
2019-03-05T17:36:36.745Z,1.60
2019-03-05T17:39:05.961Z,3.20
2019-03-05T17:41:33.924Z,1.47
2019-03-05T17:44:01.996Z,2.00
2019-03-05T17:46:30.003Z,5.00
2019-03-05T17:48:58.308Z,1.97
2019-03-05T17:51:26.212Z,3.00
2019-03-05T17:53:54.196Z,3.37
2019-03-05T17:56:22.200Z,1.87
2019-03-05T17:58:50.121Z,1.17
2019-03-05T18:01:18.155Z,1.53
2019-03-05T18:03:46.047Z,2.60
2019-03-05T18:06:14.168Z,2.30
2019-03-05T18:08:42.083Z,2.83
2019-03-05T18:11:10.155Z,7.20
2019-03-05T18:13:38.168Z,1.70
2019-03-05T18:16:06.299Z,3.73
2019-03-05T18:18:34.284Z,2.47
2019-03-05T18:21:03.405Z,1.47
2019-03-05T18:23:31.781Z,2.20
2019-03-05T18:25:59.803Z,1.93
2019-03-05T18:28:27.960Z,1.73
2019-03-05T18:30:56.714Z,2.20
2019-03-05T18:33:24.716Z,6.23
2019-03-05T18:35:52.722Z,1.53
2019-03-05T18:38:20.707Z,1.80
2019-03-05T18:40:49.316Z,1.60
2019-03-05T18:43:17.239Z,1.90
2019-03-05T18:45:48.180Z,2.20
2019-03-05T18:48:16.234Z,1.70
2019-03-05T18:50:44.814Z,1.70
2019-03-05T18:53:13.260Z,2.47
2019-03-05T18:55:41.287Z,1.60
2019-03-05T18:58:09.346Z,1.60
2019-03-05T19:00:37.351Z,1.83
2019-03-05T19:03:06.584Z,1.70
2019-03-05T19:05:36.300Z,2.33
2019-03-05T19:08:06.081Z,2.00
2019-03-05T19:10:35.894Z,1.80
2019-03-05T19:13:05.756Z,2.40
2019-03-05T19:15:35.214Z,1.93
2019-03-05T19:18:05.075Z,2.50
2019-03-05T19:20:34.501Z,2.57
2019-03-05T19:23:04.228Z,3.70
2019-03-05T19:25:34.188Z,4.03
2019-03-05T19:28:03.828Z,3.20
2019-03-05T19:30:34.383Z,3.50
2019-03-05T19:33:02.580Z,3.50
2019-03-05T19:35:30.935Z,3.30
2019-03-05T19:37:59.374Z,3.43
2019-03-05T19:40:28.462Z,2.40
2019-03-05T19:42:56.569Z,2.37
2019-03-05T19:45:24.560Z,2.17
2019-03-05T19:47:52.562Z,1.80
2019-03-05T19:50:20.581Z,1.90
2019-03-05T19:52:48.606Z,1.40
2019-03-05T19:55:17.220Z,1.90
2019-03-05T19:57:45.172Z,1.60
2019-03-05T20:00:14.947Z,1.90
2019-03-05T20:02:42.899Z,2.23
2019-03-05T20:05:11.432Z,2.47
2019-03-05T20:07:39.480Z,2.17
2019-03-05T20:10:08.178Z,2.27
2019-03-05T20:12:36.222Z,4.20
2019-03-05T20:15:04.453Z,2.77
2019-03-05T20:17:32.436Z,3.30
2019-03-05T20:20:00.789Z,2.97
2019-03-05T20:22:29.675Z,2.43
2019-03-05T20:24:57.704Z,3.33
2019-03-05T20:27:25.699Z,7.97
2019-03-05T20:29:53.708Z,3.30
2019-03-05T20:32:22.040Z,4.60
2019-03-05T20:34:50.048Z,2.43
2019-03-05T20:37:18.072Z,2.50
2019-03-05T20:39:46.081Z,3.40
2019-03-05T20:42:14.073Z,7.23
2019-03-05T20:44:42.056Z,8.33
2019-03-05T20:47:10.190Z,9.93
2019-03-05T20:49:39.241Z,6.67
2019-03-05T20:52:07.792Z,2.60
2019-03-05T20:54:35.904Z,4.93
2019-03-05T20:57:07.084Z,4.03
2019-03-05T20:59:35.319Z,2.50
2019-03-05T21:02:03.392Z,2.00
2019-03-05T21:04:31.392Z,3.47
2019-03-05T21:07:01.281Z,11.63
2019-03-05T21:09:29.056Z,3.00
2019-03-05T21:11:57.072Z,6.87
2019-03-05T21:14:29.154Z,12.60
2019-03-05T21:17:01.318Z,9.03
2019-03-05T21:19:29.280Z,3.83
2019-03-05T21:21:57.316Z,2.77
2019-03-05T21:24:25.511Z,3.40
2019-03-05T21:26:53.531Z,1.50
2019-03-05T21:29:21.959Z,4.20
2019-03-05T21:31:50.062Z,1.63
2019-03-05T21:34:18.091Z,1.20
2019-03-05T21:36:46.282Z,1.40
2019-03-05T21:39:15.699Z,1.47
2019-03-05T21:41:43.786Z,11.73
2019-03-05T21:44:11.736Z,9.50
2019-03-05T21:46:39.703Z,1.63
2019-03-05T21:49:07.812Z,1.50
2019-03-05T21:51:35.788Z,1.70
2019-03-05T21:54:03.806Z,1.30
2019-03-05T21:56:31.887Z,1.60
2019-03-05T21:58:59.856Z,4.40
2019-03-05T22:01:27.857Z,1.73
2019-03-05T22:03:55.889Z,1.57
2019-03-05T22:06:23.943Z,2.97
2019-03-05T22:08:51.984Z,1.97
2019-03-05T22:11:19.997Z,1.77
2019-03-05T22:13:47.980Z,1.73
2019-03-05T22:16:15.940Z,1.60
2019-03-05T22:18:43.993Z,1.43
2019-03-05T22:21:11.907Z,1.30
2019-03-05T22:23:39.832Z,1.40
2019-03-05T22:26:07.843Z,1.60
2019-03-05T22:28:36.055Z,1.33
2019-03-05T22:31:04.061Z,1.33
2019-03-05T22:33:32.035Z,1.67
2019-03-05T22:35:59.998Z,1.37
2019-03-05T22:38:28.048Z,1.60
2019-03-05T22:40:56.027Z,1.30
2019-03-05T22:43:24.128Z,1.20
2019-03-05T22:45:52.171Z,1.30
2019-03-05T22:48:20.156Z,1.37
2019-03-05T22:50:48.127Z,1.37
2019-03-05T22:53:16.098Z,1.10
2019-03-05T22:55:44.092Z,1.53
2019-03-05T22:58:12.008Z,1.10
2019-03-05T23:00:58.326Z,1.80
2019-03-05T23:03:26.456Z,2.10
2019-03-05T23:05:54.456Z,1.23
2019-03-05T23:08:22.647Z,1.00
2019-03-05T23:10:51.119Z,1.10
2019-03-05T23:13:19.132Z,1.13
2019-03-05T23:15:47.219Z,7.67
2019-03-05T23:18:15.338Z,1.83
2019-03-05T23:20:43.321Z,1.10
2019-03-05T23:23:11.308Z,1.10
2019-03-05T23:25:39.212Z,1.20
2019-03-05T23:28:07.231Z,1.20
2019-03-05T23:30:35.259Z,1.00
2019-03-05T23:33:03.257Z,1.30
2019-03-05T23:35:31.379Z,1.10
2019-03-05T23:37:59.436Z,1.00
2019-03-05T23:40:31.568Z,2.10
2019-03-05T23:42:59.264Z,1.87
2019-03-05T23:45:27.493Z,1.53
2019-03-05T23:47:55.484Z,2.13
2019-03-05T23:50:23.411Z,1.87
2019-03-05T23:52:54.080Z,1.17
2019-03-05T23:55:22.170Z,1.50
2019-03-05T23:57:50.219Z,1.47
